Terminal Aerodrome Forecast
Issued by NWS Buffalo, NY

Home | Current Version | Previous Version | Text Only | Print | Product List | Glossary On
Versions: 1 2 3 4 5 6 7 8 9 10 11 12 13 14 15 16 17 18 19 20 21 22 23 24 25 26 27 28 29
000
FTUS41 KBUF 031135
TAFART
TAF
KART 031135Z 0312/0412 23014G24KT P6SM SCT040 BKN130
     FM031500 22014G24KT P6SM VCSH BKN040
     FM031800 23012G20KT 6SM -SHRA VCTS SCT025CB BKN040
     FM032100 22014KT P6SM BKN040
     FM040000 22007KT P6SM SCT040
     FM040600 VRB03KT P6SM SCT140
     FM041000 VRB03KT P6SM BKN060=

USA.gov is the U.S. government's official web portal to all federal, state and local government web resources and services.